sensor_id;sensor_type;location;lat;lon;timestamp;P1;durP1;ratioP1;P2;durP2;ratioP2
4198;SDS011;2113;50.946;14.610;2023-09-08T00:00:04;12.30;;;8.07;;
4198;SDS011;2113;50.946;14.610;2023-09-08T00:02:35;11.75;;;8.20;;
4198;SDS011;2113;50.946;14.610;2023-09-08T00:05:03;13.98;;;8.05;;
4198;SDS011;2113;50.946;14.610;2023-09-08T00:07:32;12.80;;;7.93;;
4198;SDS011;2113;50.946;14.610;2023-09-08T00:10:00;11.85;;;6.80;;
4198;SDS011;2113;50.946;14.610;2023-09-08T00:12:29;10.68;;;7.35;;
4198;SDS011;2113;50.946;14.610;2023-09-08T00:14:57;8.40;;;7.30;;
4198;SDS011;2113;50.946;14.610;2023-09-08T00:17:26;9.43;;;6.88;;
4198;SDS011;2113;50.946;14.610;2023-09-08T00:19:56;11.48;;;7.22;;
4198;SDS011;2113;50.946;14.610;2023-09-08T00:22:24;9.88;;;7.13;;
4198;SDS011;2113;50.946;14.610;2023-09-08T00:24:52;9.25;;;7.50;;
4198;SDS011;2113;50.946;14.610;2023-09-08T00:27:22;9.45;;;6.25;;
4198;SDS011;2113;50.946;14.610;2023-09-08T00:29:50;9.15;;;6.90;;
4198;SDS011;2113;50.946;14.610;2023-09-08T00:32:18;11.15;;;7.07;;
4198;SDS011;2113;50.946;14.610;2023-09-08T00:34:46;8.55;;;6.65;;
4198;SDS011;2113;50.946;14.610;2023-09-08T00:37:16;9.75;;;8.07;;
4198;SDS011;2113;50.946;14.610;2023-09-08T00:39:44;10.90;;;7.70;;
4198;SDS011;2113;50.946;14.610;2023-09-08T00:42:13;9.57;;;7.90;;
4198;SDS011;2113;50.946;14.610;2023-09-08T00:44:41;10.20;;;6.60;;
4198;SDS011;2113;50.946;14.610;2023-09-08T00:47:09;11.52;;;7.40;;
4198;SDS011;2113;50.946;14.610;2023-09-08T00:49:38;10.20;;;6.75;;
4198;SDS011;2113;50.946;14.610;2023-09-08T00:52:06;11.10;;;7.05;;
4198;SDS011;2113;50.946;14.610;2023-09-08T00:54:36;10.02;;;6.85;;
4198;SDS011;2113;50.946;14.610;2023-09-08T00:57:05;11.88;;;8.35;;
4198;SDS011;2113;50.946;14.610;2023-09-08T00:59:34;10.90;;;6.95;;
4198;SDS011;2113;50.946;14.610;2023-09-08T01:02:03;8.57;;;6.80;;
4198;SDS011;2113;50.946;14.610;2023-09-08T01:04:33;12.15;;;7.93;;
4198;SDS011;2113;50.946;14.610;2023-09-08T01:07:01;11.50;;;8.40;;
4198;SDS011;2113;50.946;14.610;2023-09-08T01:09:30;9.75;;;7.05;;
4198;SDS011;2113;50.946;14.610;2023-09-08T01:12:00;9.55;;;7.07;;
4198;SDS011;2113;50.946;14.610;2023-09-08T01:14:31;10.52;;;7.55;;
4198;SDS011;2113;50.946;14.610;2023-09-08T01:16:59;12.70;;;7.45;;
4198;SDS011;2113;50.946;14.610;2023-09-08T01:19:29;10.10;;;6.45;;
4198;SDS011;2113;50.946;14.610;2023-09-08T01:25:11;13.48;;;8.10;;
4198;SDS011;2113;50.946;14.610;2023-09-08T01:27:45;13.85;;;7.22;;
4198;SDS011;2113;50.946;14.610;2023-09-08T01:30:16;13.35;;;7.28;;
4198;SDS011;2113;50.946;14.610;2023-09-08T01:32:46;9.18;;;7.15;;
4198;SDS011;2113;50.946;14.610;2023-09-08T01:35:15;10.10;;;7.43;;
4198;SDS011;2113;50.946;14.610;2023-09-08T01:37:44;11.55;;;7.72;;
4198;SDS011;2113;50.946;14.610;2023-09-08T01:40:16;14.20;;;8.23;;
4198;SDS011;2113;50.946;14.610;2023-09-08T01:42:45;14.43;;;8.18;;
4198;SDS011;2113;50.946;14.610;2023-09-08T01:45:13;10.30;;;7.50;;
4198;SDS011;2113;50.946;14.610;2023-09-08T01:47:42;10.13;;;8.10;;
4198;SDS011;2113;50.946;14.610;2023-09-08T01:50:10;10.75;;;6.70;;
4198;SDS011;2113;50.946;14.610;2023-09-08T01:52:38;12.43;;;7.97;;
4198;SDS011;2113;50.946;14.610;2023-09-08T01:55:06;14.15;;;8.57;;
4198;SDS011;2113;50.946;14.610;2023-09-08T01:57:36;10.60;;;7.88;;
4198;SDS011;2113;50.946;14.610;2023-09-08T02:00:05;10.05;;;8.23;;
4198;SDS011;2113;50.946;14.610;2023-09-08T02:02:40;10.75;;;7.57;;
4198;SDS011;2113;50.946;14.610;2023-09-08T02:05:09;10.95;;;7.75;;
4198;SDS011;2113;50.946;14.610;2023-09-08T02:07:37;9.77;;;7.85;;
4198;SDS011;2113;50.946;14.610;2023-09-08T02:10:06;11.10;;;8.38;;
4198;SDS011;2113;50.946;14.610;2023-09-08T02:12:39;10.90;;;7.35;;
4198;SDS011;2113;50.946;14.610;2023-09-08T02:15:07;10.88;;;7.30;;
4198;SDS011;2113;50.946;14.610;2023-09-08T02:17:38;10.82;;;6.90;;
4198;SDS011;2113;50.946;14.610;2023-09-08T02:20:06;10.15;;;6.95;;
4198;SDS011;2113;50.946;14.610;2023-09-08T02:22:35;11.65;;;7.60;;
4198;SDS011;2113;50.946;14.610;2023-09-08T02:25:04;10.68;;;6.70;;
4198;SDS011;2113;50.946;14.610;2023-09-08T02:27:33;10.48;;;7.22;;
4198;SDS011;2113;50.946;14.610;2023-09-08T02:30:03;10.80;;;7.63;;
4198;SDS011;2113;50.946;14.610;2023-09-08T02:32:32;9.25;;;7.13;;
4198;SDS011;2113;50.946;14.610;2023-09-08T02:35:01;11.07;;;6.95;;
4198;SDS011;2113;50.946;14.610;2023-09-08T02:37:29;14.00;;;8.05;;
4198;SDS011;2113;50.946;14.610;2023-09-08T02:39:57;10.38;;;7.28;;
4198;SDS011;2113;50.946;14.610;2023-09-08T02:42:26;11.82;;;8.60;;
4198;SDS011;2113;50.946;14.610;2023-09-08T02:44:56;12.48;;;8.35;;
4198;SDS011;2113;50.946;14.610;2023-09-08T02:47:26;14.20;;;9.80;;
4198;SDS011;2113;50.946;14.610;2023-09-08T02:49:56;12.55;;;8.30;;
4198;SDS011;2113;50.946;14.610;2023-09-08T02:52:24;12.30;;;8.57;;
4198;SDS011;2113;50.946;14.610;2023-09-08T02:54:53;12.80;;;8.48;;
4198;SDS011;2113;50.946;14.610;2023-09-08T02:57:21;11.70;;;8.13;;
4198;SDS011;2113;50.946;14.610;2023-09-08T02:59:49;11.70;;;8.63;;
4198;SDS011;2113;50.946;14.610;2023-09-08T03:02:18;10.15;;;7.50;;
4198;SDS011;2113;50.946;14.610;2023-09-08T03:04:48;12.50;;;8.55;;
4198;SDS011;2113;50.946;14.610;2023-09-08T03:07:16;11.20;;;8.35;;
4198;SDS011;2113;50.946;14.610;2023-09-08T03:09:44;12.57;;;8.27;;
4198;SDS011;2113;50.946;14.610;2023-09-08T03:12:13;13.52;;;8.50;;
4198;SDS011;2113;50.946;14.610;2023-09-08T03:14:42;11.73;;;8.38;;
4198;SDS011;2113;50.946;14.610;2023-09-08T03:17:11;10.07;;;7.70;;
4198;SDS011;2113;50.946;14.610;2023-09-08T03:19:40;12.40;;;8.30;;
4198;SDS011;2113;50.946;14.610;2023-09-08T03:22:13;13.85;;;8.13;;
4198;SDS011;2113;50.946;14.610;2023-09-08T03:24:41;11.70;;;7.90;;
4198;SDS011;2113;50.946;14.610;2023-09-08T03:27:10;10.85;;;8.40;;
4198;SDS011;2113;50.946;14.610;2023-09-08T03:29:38;15.68;;;8.27;;
4198;SDS011;2113;50.946;14.610;2023-09-08T03:32:06;16.90;;;10.13;;
4198;SDS011;2113;50.946;14.610;2023-09-08T03:34:35;11.18;;;8.02;;
4198;SDS011;2113;50.946;14.610;2023-09-08T03:37:07;13.27;;;8.82;;
4198;SDS011;2113;50.946;14.610;2023-09-08T03:39:37;11.05;;;7.93;;
4198;SDS011;2113;50.946;14.610;2023-09-08T03:42:06;11.57;;;8.50;;
4198;SDS011;2113;50.946;14.610;2023-09-08T03:44:34;13.02;;;8.70;;
4198;SDS011;2113;50.946;14.610;2023-09-08T03:47:02;10.25;;;7.97;;
4198;SDS011;2113;50.946;14.610;2023-09-08T03:49:31;11.90;;;7.65;;
4198;SDS011;2113;50.946;14.610;2023-09-08T03:52:00;11.85;;;8.60;;
4198;SDS011;2113;50.946;14.610;2023-09-08T03:54:30;11.77;;;8.48;;
4198;SDS011;2113;50.946;14.610;2023-09-08T03:57:00;9.13;;;7.07;;
4198;SDS011;2113;50.946;14.610;2023-09-08T03:59:28;12.95;;;8.52;;
4198;SDS011;2113;50.946;14.610;2023-09-08T04:01:57;11.30;;;7.90;;
4198;SDS011;2113;50.946;14.610;2023-09-08T04:04:25;11.98;;;8.70;;
4198;SDS011;2113;50.946;14.610;2023-09-08T04:06:53;13.85;;;8.25;;
4198;SDS011;2113;50.946;14.610;2023-09-08T04:09:22;12.55;;;8.23;;
4198;SDS011;2113;50.946;14.610;2023-09-08T04:11:50;11.73;;;7.95;;
4198;SDS011;2113;50.946;14.610;2023-09-08T04:14:20;12.20;;;7.93;;
4198;SDS011;2113;50.946;14.610;2023-09-08T04:16:50;14.30;;;7.60;;
4198;SDS011;2113;50.946;14.610;2023-09-08T04:19:19;11.82;;;7.40;;
4198;SDS011;2113;50.946;14.610;2023-09-08T04:21:49;12.90;;;8.20;;
4198;SDS011;2113;50.946;14.610;2023-09-08T04:24:17;11.55;;;8.15;;
4198;SDS011;2113;50.946;14.610;2023-09-08T04:26:47;11.98;;;7.90;;
4198;SDS011;2113;50.946;14.610;2023-09-08T04:29:15;13.85;;;8.15;;
4198;SDS011;2113;50.946;14.610;2023-09-08T04:31:45;13.95;;;8.10;;
4198;SDS011;2113;50.946;14.610;2023-09-08T04:34:13;12.38;;;8.07;;
4198;SDS011;2113;50.946;14.610;2023-09-08T04:36:42;11.40;;;8.13;;
4198;SDS011;2113;50.946;14.610;2023-09-08T04:39:10;9.85;;;7.68;;
4198;SDS011;2113;50.946;14.610;2023-09-08T04:41:38;14.80;;;8.90;;
4198;SDS011;2113;50.946;14.610;2023-09-08T04:44:06;13.38;;;8.57;;
4198;SDS011;2113;50.946;14.610;2023-09-08T04:46:35;11.10;;;8.45;;
4198;SDS011;2113;50.946;14.610;2023-09-08T04:49:05;13.98;;;8.20;;
4198;SDS011;2113;50.946;14.610;2023-09-08T04:51:33;11.40;;;7.53;;
4198;SDS011;2113;50.946;14.610;2023-09-08T04:54:01;10.70;;;7.38;;
4198;SDS011;2113;50.946;14.610;2023-09-08T04:56:30;10.77;;;8.02;;
4198;SDS011;2113;50.946;14.610;2023-09-08T04:58:58;12.23;;;8.45;;
4198;SDS011;2113;50.946;14.610;2023-09-08T05:01:28;11.27;;;8.00;;
4198;SDS011;2113;50.946;14.610;2023-09-08T05:04:00;10.77;;;8.13;;
4198;SDS011;2113;50.946;14.610;2023-09-08T05:06:31;12.02;;;8.07;;
4198;SDS011;2113;50.946;14.610;2023-09-08T05:08:59;9.15;;;7.80;;
4198;SDS011;2113;50.946;14.610;2023-09-08T05:11:28;10.82;;;7.53;;
4198;SDS011;2113;50.946;14.610;2023-09-08T05:13:57;10.32;;;7.65;;
4198;SDS011;2113;50.946;14.610;2023-09-08T05:16:25;10.50;;;7.70;;
4198;SDS011;2113;50.946;14.610;2023-09-08T05:19:05;11.38;;;7.68;;
4198;SDS011;2113;50.946;14.610;2023-09-08T05:21:37;10.52;;;7.10;;
4198;SDS011;2113;50.946;14.610;2023-09-08T05:24:06;11.45;;;6.75;;
4198;SDS011;2113;50.946;14.610;2023-09-08T05:26:36;9.32;;;7.45;;
4198;SDS011;2113;50.946;14.610;2023-09-08T05:29:05;8.95;;;6.97;;
4198;SDS011;2113;50.946;14.610;2023-09-08T05:31:34;12.00;;;7.43;;
4198;SDS011;2113;50.946;14.610;2023-09-08T05:34:02;8.73;;;7.03;;
4198;SDS011;2113;50.946;14.610;2023-09-08T05:36:30;9.10;;;6.40;;
4198;SDS011;2113;50.946;14.610;2023-09-08T05:39:00;10.63;;;7.45;;
4198;SDS011;2113;50.946;14.610;2023-09-08T05:41:29;9.70;;;7.32;;
4198;SDS011;2113;50.946;14.610;2023-09-08T05:43:58;12.30;;;7.30;;
4198;SDS011;2113;50.946;14.610;2023-09-08T05:46:28;11.43;;;7.18;;
4198;SDS011;2113;50.946;14.610;2023-09-08T05:48:56;11.98;;;7.80;;
4198;SDS011;2113;50.946;14.610;2023-09-08T05:51:25;9.95;;;7.57;;
4198;SDS011;2113;50.946;14.610;2023-09-08T05:53:55;11.85;;;8.13;;
4198;SDS011;2113;50.946;14.610;2023-09-08T05:56:26;9.55;;;7.43;;
4198;SDS011;2113;50.946;14.610;2023-09-08T05:58:59;16.88;;;7.70;;
4198;SDS011;2113;50.946;14.610;2023-09-08T06:01:29;11.98;;;8.25;;
4198;SDS011;2113;50.946;14.610;2023-09-08T06:04:00;11.38;;;8.27;;
4198;SDS011;2113;50.946;14.610;2023-09-08T06:06:29;13.35;;;8.23;;
4198;SDS011;2113;50.946;14.610;2023-09-08T06:08:59;11.15;;;7.03;;
4198;SDS011;2113;50.946;14.610;2023-09-08T06:11:29;10.13;;;8.15;;
4198;SDS011;2113;50.946;14.610;2023-09-08T06:13:57;9.60;;;6.53;;
4198;SDS011;2113;50.946;14.610;2023-09-08T06:16:31;9.77;;;6.30;;
4198;SDS011;2113;50.946;14.610;2023-09-08T06:19:00;9.48;;;7.18;;
4198;SDS011;2113;50.946;14.610;2023-09-08T06:21:30;8.68;;;6.47;;
4198;SDS011;2113;50.946;14.610;2023-09-08T06:23:59;10.02;;;6.40;;
4198;SDS011;2113;50.946;14.610;2023-09-08T06:26:29;9.90;;;6.88;;
4198;SDS011;2113;50.946;14.610;2023-09-08T06:28:58;9.93;;;6.78;;
4198;SDS011;2113;50.946;14.610;2023-09-08T06:31:27;8.90;;;7.32;;
4198;SDS011;2113;50.946;14.610;2023-09-08T06:33:55;8.63;;;6.65;;
4198;SDS011;2113;50.946;14.610;2023-09-08T06:36:24;8.55;;;6.72;;
4198;SDS011;2113;50.946;14.610;2023-09-08T06:38:53;8.68;;;6.32;;
4198;SDS011;2113;50.946;14.610;2023-09-08T06:41:21;9.70;;;6.97;;
4198;SDS011;2113;50.946;14.610;2023-09-08T06:43:53;16.75;;;7.10;;
4198;SDS011;2113;50.946;14.610;2023-09-08T06:46:23;10.50;;;7.00;;
4198;SDS011;2113;50.946;14.610;2023-09-08T06:48:52;10.32;;;6.32;;
4198;SDS011;2113;50.946;14.610;2023-09-08T06:51:21;12.85;;;6.82;;
4198;SDS011;2113;50.946;14.610;2023-09-08T06:53:54;8.23;;;6.85;;
4198;SDS011;2113;50.946;14.610;2023-09-08T06:56:27;9.80;;;6.95;;
4198;SDS011;2113;50.946;14.610;2023-09-08T06:58:58;11.02;;;7.40;;
4198;SDS011;2113;50.946;14.610;2023-09-08T07:01:28;10.50;;;6.50;;
4198;SDS011;2113;50.946;14.610;2023-09-08T07:03:56;9.65;;;6.10;;
4198;SDS011;2113;50.946;14.610;2023-09-08T07:06:26;9.80;;;5.70;;
4198;SDS011;2113;50.946;14.610;2023-09-08T07:08:56;9.68;;;6.40;;
4198;SDS011;2113;50.946;14.610;2023-09-08T07:11:24;9.30;;;6.20;;
4198;SDS011;2113;50.946;14.610;2023-09-08T07:13:53;6.87;;;5.60;;
4198;SDS011;2113;50.946;14.610;2023-09-08T07:16:24;6.93;;;5.80;;
4198;SDS011;2113;50.946;14.610;2023-09-08T07:18:53;12.13;;;6.30;;
4198;SDS011;2113;50.946;14.610;2023-09-08T07:21:24;8.07;;;6.00;;
4198;SDS011;2113;50.946;14.610;2023-09-08T07:23:57;6.47;;;5.43;;
4198;SDS011;2113;50.946;14.610;2023-09-08T07:26:29;7.27;;;6.07;;
4198;SDS011;2113;50.946;14.610;2023-09-08T07:28:58;6.33;;;5.63;;
4198;SDS011;2113;50.946;14.610;2023-09-08T07:31:29;9.37;;;6.77;;
4198;SDS011;2113;50.946;14.610;2023-09-08T07:34:04;6.93;;;6.07;;
4198;SDS011;2113;50.946;14.610;2023-09-08T07:36:35;8.97;;;6.10;;
4198;SDS011;2113;50.946;14.610;2023-09-08T07:39:04;8.07;;;6.50;;
4198;SDS011;2113;50.946;14.610;2023-09-08T07:41:32;7.70;;;6.40;;
4198;SDS011;2113;50.946;14.610;2023-09-08T07:44:01;11.30;;;6.70;;
4198;SDS011;2113;50.946;14.610;2023-09-08T07:46:32;8.53;;;5.90;;
4198;SDS011;2113;50.946;14.610;2023-09-08T07:49:01;6.60;;;5.27;;
4198;SDS011;2113;50.946;14.610;2023-09-08T07:51:30;7.73;;;6.30;;
4198;SDS011;2113;50.946;14.610;2023-09-08T07:53:58;5.87;;;5.27;;
4198;SDS011;2113;50.946;14.610;2023-09-08T07:56:26;7.60;;;6.77;;
4198;SDS011;2113;50.946;14.610;2023-09-08T07:58:55;7.63;;;6.07;;
4198;SDS011;2113;50.946;14.610;2023-09-08T08:01:24;6.73;;;5.80;;
4198;SDS011;2113;50.946;14.610;2023-09-08T08:03:54;8.90;;;6.63;;
4198;SDS011;2113;50.946;14.610;2023-09-08T08:06:22;6.93;;;5.77;;
4198;SDS011;2113;50.946;14.610;2023-09-08T08:08:51;6.73;;;5.10;;
4198;SDS011;2113;50.946;14.610;2023-09-08T08:11:25;9.40;;;6.60;;
4198;SDS011;2113;50.946;14.610;2023-09-08T08:13:55;9.77;;;5.93;;
4198;SDS011;2113;50.946;14.610;2023-09-08T08:16:23;6.93;;;4.53;;
4198;SDS011;2113;50.946;14.610;2023-09-08T08:18:52;7.03;;;5.90;;
4198;SDS011;2113;50.946;14.610;2023-09-08T08:21:22;8.30;;;5.87;;
4198;SDS011;2113;50.946;14.610;2023-09-08T08:23:53;8.00;;;6.00;;
4198;SDS011;2113;50.946;14.610;2023-09-08T08:26:22;7.40;;;5.57;;
4198;SDS011;2113;50.946;14.610;2023-09-08T08:28:54;7.30;;;5.97;;
4198;SDS011;2113;50.946;14.610;2023-09-08T08:31:22;14.33;;;6.30;;
4198;SDS011;2113;50.946;14.610;2023-09-08T08:33:52;6.20;;;5.40;;
4198;SDS011;2113;50.946;14.610;2023-09-08T08:36:27;5.90;;;4.47;;
4198;SDS011;2113;50.946;14.610;2023-09-08T08:38:56;7.37;;;5.60;;
4198;SDS011;2113;50.946;14.610;2023-09-08T08:41:25;7.00;;;5.40;;
4198;SDS011;2113;50.946;14.610;2023-09-08T08:43:54;7.60;;;5.33;;
4198;SDS011;2113;50.946;14.610;2023-09-08T08:46:29;6.50;;;4.90;;
4198;SDS011;2113;50.946;14.610;2023-09-08T08:48:58;6.10;;;5.33;;
4198;SDS011;2113;50.946;14.610;2023-09-08T08:51:31;6.00;;;4.87;;
4198;SDS011;2113;50.946;14.610;2023-09-08T08:54:01;5.70;;;5.10;;
4198;SDS011;2113;50.946;14.610;2023-09-08T08:56:31;5.47;;;4.50;;
4198;SDS011;2113;50.946;14.610;2023-09-08T08:59:01;5.40;;;4.20;;
4198;SDS011;2113;50.946;14.610;2023-09-08T09:01:29;5.93;;;4.57;;
4198;SDS011;2113;50.946;14.610;2023-09-08T09:03:59;8.23;;;5.33;;
4198;SDS011;2113;50.946;14.610;2023-09-08T09:06:28;8.33;;;5.20;;
4198;SDS011;2113;50.946;14.610;2023-09-08T09:08:58;7.50;;;5.87;;
4198;SDS011;2113;50.946;14.610;2023-09-08T09:11:27;8.93;;;5.00;;
4198;SDS011;2113;50.946;14.610;2023-09-08T09:13:55;7.67;;;6.10;;
4198;SDS011;2113;50.946;14.610;2023-09-08T09:16:24;5.53;;;4.77;;
4198;SDS011;2113;50.946;14.610;2023-09-08T09:18:56;7.30;;;5.23;;
4198;SDS011;2113;50.946;14.610;2023-09-08T09:21:40;6.87;;;5.20;;
4198;SDS011;2113;50.946;14.610;2023-09-08T09:24:15;6.20;;;5.40;;
4198;SDS011;2113;50.946;14.610;2023-09-08T09:26:46;6.97;;;5.40;;
4198;SDS011;2113;50.946;14.610;2023-09-08T09:29:19;8.10;;;5.07;;
4198;SDS011;2113;50.946;14.610;2023-09-08T09:31:51;6.93;;;5.40;;
4198;SDS011;2113;50.946;14.610;2023-09-08T09:34:21;8.53;;;4.90;;
4198;SDS011;2113;50.946;14.610;2023-09-08T09:36:50;7.97;;;5.23;;
4198;SDS011;2113;50.946;14.610;2023-09-08T09:39:22;8.13;;;5.13;;
4198;SDS011;2113;50.946;14.610;2023-09-08T09:41:53;5.87;;;4.40;;
4198;SDS011;2113;50.946;14.610;2023-09-08T09:44:23;7.50;;;4.47;;
4198;SDS011;2113;50.946;14.610;2023-09-08T09:46:52;6.60;;;5.17;;
4198;SDS011;2113;50.946;14.610;2023-09-08T09:49:21;7.77;;;5.27;;
4198;SDS011;2113;50.946;14.610;2023-09-08T09:51:53;6.03;;;4.90;;
4198;SDS011;2113;50.946;14.610;2023-09-08T09:54:23;10.20;;;5.20;;
4198;SDS011;2113;50.946;14.610;2023-09-08T09:56:52;7.53;;;5.13;;
4198;SDS011;2113;50.946;14.610;2023-09-08T09:59:20;6.40;;;5.23;;
4198;SDS011;2113;50.946;14.610;2023-09-08T10:01:50;6.77;;;5.00;;
4198;SDS011;2113;50.946;14.610;2023-09-08T10:04:20;8.57;;;5.80;;
4198;SDS011;2113;50.946;14.610;2023-09-08T10:06:48;6.30;;;4.50;;
4198;SDS011;2113;50.946;14.610;2023-09-08T10:09:18;8.00;;;4.87;;
4198;SDS011;2113;50.946;14.610;2023-09-08T10:11:48;6.60;;;4.50;;
4198;SDS011;2113;50.946;14.610;2023-09-08T10:14:18;6.10;;;4.87;;
4198;SDS011;2113;50.946;14.610;2023-09-08T10:16:47;7.53;;;4.87;;
4198;SDS011;2113;50.946;14.610;2023-09-08T10:19:19;6.60;;;5.40;;
4198;SDS011;2113;50.946;14.610;2023-09-08T10:21:49;11.00;;;5.27;;
4198;SDS011;2113;50.946;14.610;2023-09-08T10:24:22;9.53;;;5.90;;
4198;SDS011;2113;50.946;14.610;2023-09-08T10:26:58;5.90;;;5.13;;
4198;SDS011;2113;50.946;14.610;2023-09-08T10:29:32;8.40;;;5.90;;
4198;SDS011;2113;50.946;14.610;2023-09-08T10:32:00;6.97;;;4.60;;
4198;SDS011;2113;50.946;14.610;2023-09-08T10:34:31;5.30;;;4.70;;
4198;SDS011;2113;50.946;14.610;2023-09-08T10:37:01;5.33;;;4.53;;
4198;SDS011;2113;50.946;14.610;2023-09-08T10:39:30;7.17;;;5.57;;
4198;SDS011;2113;50.946;14.610;2023-09-08T10:42:23;7.37;;;5.80;;
4198;SDS011;2113;50.946;14.610;2023-09-08T10:44:56;7.10;;;5.00;;
4198;SDS011;2113;50.946;14.610;2023-09-08T10:47:30;6.70;;;5.00;;
4198;SDS011;2113;50.946;14.610;2023-09-08T10:50:03;4.87;;;4.27;;
4198;SDS011;2113;50.946;14.610;2023-09-08T10:52:34;5.60;;;4.70;;
4198;SDS011;2113;50.946;14.610;2023-09-08T10:55:04;5.97;;;5.03;;
4198;SDS011;2113;50.946;14.610;2023-09-08T10:57:35;5.60;;;4.60;;
4198;SDS011;2113;50.946;14.610;2023-09-08T11:00:04;6.00;;;4.80;;
4198;SDS011;2113;50.946;14.610;2023-09-08T11:02:40;9.33;;;5.90;;
4198;SDS011;2113;50.946;14.610;2023-09-08T11:05:11;5.60;;;4.93;;
4198;SDS011;2113;50.946;14.610;2023-09-08T11:07:42;6.33;;;5.30;;
4198;SDS011;2113;50.946;14.610;2023-09-08T11:10:12;5.90;;;5.00;;
4198;SDS011;2113;50.946;14.610;2023-09-08T11:12:42;9.67;;;5.80;;
4198;SDS011;2113;50.946;14.610;2023-09-08T11:15:11;6.27;;;5.00;;
4198;SDS011;2113;50.946;14.610;2023-09-08T11:17:39;5.67;;;4.50;;
4198;SDS011;2113;50.946;14.610;2023-09-08T11:20:09;6.53;;;5.20;;
4198;SDS011;2113;50.946;14.610;2023-09-08T11:22:39;6.13;;;5.50;;
4198;SDS011;2113;50.946;14.610;2023-09-08T11:25:08;5.20;;;4.70;;
4198;SDS011;2113;50.946;14.610;2023-09-08T11:27:38;6.03;;;4.87;;
4198;SDS011;2113;50.946;14.610;2023-09-08T11:30:09;6.50;;;5.83;;
4198;SDS011;2113;50.946;14.610;2023-09-08T11:32:38;5.63;;;4.80;;
4198;SDS011;2113;50.946;14.610;2023-09-08T11:35:08;7.00;;;4.10;;
4198;SDS011;2113;50.946;14.610;2023-09-08T11:37:38;6.43;;;5.47;;
4198;SDS011;2113;50.946;14.610;2023-09-08T11:40:08;6.83;;;4.90;;
4198;SDS011;2113;50.946;14.610;2023-09-08T11:42:43;7.40;;;5.63;;
4198;SDS011;2113;50.946;14.610;2023-09-08T11:45:14;5.60;;;4.83;;
4198;SDS011;2113;50.946;14.610;2023-09-08T11:47:46;7.37;;;4.30;;
4198;SDS011;2113;50.946;14.610;2023-09-08T11:50:16;8.97;;;5.30;;
4198;SDS011;2113;50.946;14.610;2023-09-08T11:52:46;11.03;;;5.20;;
4198;SDS011;2113;50.946;14.610;2023-09-08T11:55:15;6.60;;;5.17;;
4198;SDS011;2113;50.946;14.610;2023-09-08T11:57:45;6.23;;;4.57;;
4198;SDS011;2113;50.946;14.610;2023-09-08T12:00:18;6.83;;;5.53;;
4198;SDS011;2113;50.946;14.610;2023-09-08T12:02:51;5.67;;;4.83;;
4198;SDS011;2113;50.946;14.610;2023-09-08T12:05:20;8.20;;;5.10;;
4198;SDS011;2113;50.946;14.610;2023-09-08T12:07:51;8.50;;;5.00;;
4198;SDS011;2113;50.946;14.610;2023-09-08T12:10:20;8.73;;;5.53;;
4198;SDS011;2113;50.946;14.610;2023-09-08T12:12:49;6.57;;;4.53;;
4198;SDS011;2113;50.946;14.610;2023-09-08T12:15:31;9.47;;;5.97;;
4198;SDS011;2113;50.946;14.610;2023-09-08T12:18:00;6.90;;;5.10;;
4198;SDS011;2113;50.946;14.610;2023-09-08T12:20:30;5.60;;;4.80;;
4198;SDS011;2113;50.946;14.610;2023-09-08T12:22:59;4.93;;;4.17;;
4198;SDS011;2113;50.946;14.610;2023-09-08T12:25:28;14.93;;;5.83;;
4198;SDS011;2113;50.946;14.610;2023-09-08T12:27:58;7.73;;;5.67;;
4198;SDS011;2113;50.946;14.610;2023-09-08T12:30:28;6.00;;;5.37;;
4198;SDS011;2113;50.946;14.610;2023-09-08T12:33:01;5.97;;;5.07;;
4198;SDS011;2113;50.946;14.610;2023-09-08T12:35:31;7.07;;;5.37;;
4198;SDS011;2113;50.946;14.610;2023-09-08T12:38:00;7.13;;;5.03;;
4198;SDS011;2113;50.946;14.610;2023-09-08T12:40:30;7.93;;;4.83;;
4198;SDS011;2113;50.946;14.610;2023-09-08T12:43:02;7.10;;;4.97;;
4198;SDS011;2113;50.946;14.610;2023-09-08T12:45:50;8.97;;;4.83;;
4198;SDS011;2113;50.946;14.610;2023-09-08T12:48:19;5.23;;;4.17;;
4198;SDS011;2113;50.946;14.610;2023-09-08T12:50:48;5.20;;;4.20;;
4198;SDS011;2113;50.946;14.610;2023-09-08T12:53:16;6.70;;;5.50;;
4198;SDS011;2113;50.946;14.610;2023-09-08T12:55:45;6.00;;;4.73;;
4198;SDS011;2113;50.946;14.610;2023-09-08T12:58:14;6.00;;;4.70;;
4198;SDS011;2113;50.946;14.610;2023-09-08T13:00:42;7.03;;;4.37;;
4198;SDS011;2113;50.946;14.610;2023-09-08T13:03:11;7.00;;;4.67;;
4198;SDS011;2113;50.946;14.610;2023-09-08T13:05:41;5.23;;;4.13;;
4198;SDS011;2113;50.946;14.610;2023-09-08T13:08:10;6.63;;;5.00;;
4198;SDS011;2113;50.946;14.610;2023-09-08T13:10:42;6.77;;;4.27;;
4198;SDS011;2113;50.946;14.610;2023-09-08T13:13:10;6.57;;;4.30;;
4198;SDS011;2113;50.946;14.610;2023-09-08T13:15:38;10.57;;;5.23;;
4198;SDS011;2113;50.946;14.610;2023-09-08T13:18:07;5.77;;;4.80;;
4198;SDS011;2113;50.946;14.610;2023-09-08T13:20:35;6.13;;;4.13;;
4198;SDS011;2113;50.946;14.610;2023-09-08T13:23:05;5.30;;;4.27;;
4198;SDS011;2113;50.946;14.610;2023-09-08T13:25:34;5.70;;;4.40;;
4198;SDS011;2113;50.946;14.610;2023-09-08T13:28:02;6.07;;;4.33;;
4198;SDS011;2113;50.946;14.610;2023-09-08T13:30:31;7.90;;;5.00;;
4198;SDS011;2113;50.946;14.610;2023-09-08T13:32:59;5.33;;;4.40;;
4198;SDS011;2113;50.946;14.610;2023-09-08T13:35:28;8.43;;;5.00;;
4198;SDS011;2113;50.946;14.610;2023-09-08T13:37:56;5.67;;;4.50;;
4198;SDS011;2113;50.946;14.610;2023-09-08T13:40:28;6.67;;;5.07;;
4198;SDS011;2113;50.946;14.610;2023-09-08T13:42:57;8.73;;;4.67;;
4198;SDS011;2113;50.946;14.610;2023-09-08T13:45:25;7.63;;;4.40;;
4198;SDS011;2113;50.946;14.610;2023-09-08T13:47:54;7.40;;;5.00;;
4198;SDS011;2113;50.946;14.610;2023-09-08T13:50:22;5.90;;;4.70;;
4198;SDS011;2113;50.946;14.610;2023-09-08T13:52:53;5.50;;;4.53;;
4198;SDS011;2113;50.946;14.610;2023-09-08T13:55:25;7.50;;;4.60;;
4198;SDS011;2113;50.946;14.610;2023-09-08T13:57:57;6.23;;;4.90;;
4198;SDS011;2113;50.946;14.610;2023-09-08T14:00:28;4.87;;;4.13;;
4198;SDS011;2113;50.946;14.610;2023-09-08T14:02:58;8.20;;;5.17;;
4198;SDS011;2113;50.946;14.610;2023-09-08T14:05:33;5.37;;;4.50;;
4198;SDS011;2113;50.946;14.610;2023-09-08T14:08:05;5.90;;;4.57;;
4198;SDS011;2113;50.946;14.610;2023-09-08T14:10:49;6.17;;;3.90;;
4198;SDS011;2113;50.946;14.610;2023-09-08T14:13:32;8.20;;;5.00;;
4198;SDS011;2113;50.946;14.610;2023-09-08T14:16:02;7.43;;;4.50;;
4198;SDS011;2113;50.946;14.610;2023-09-08T14:18:31;6.77;;;4.90;;
4198;SDS011;2113;50.946;14.610;2023-09-08T14:20:59;7.50;;;4.97;;
4198;SDS011;2113;50.946;14.610;2023-09-08T14:23:28;7.60;;;4.30;;
4198;SDS011;2113;50.946;14.610;2023-09-08T14:25:58;8.00;;;5.03;;
4198;SDS011;2113;50.946;14.610;2023-09-08T14:28:27;7.80;;;4.70;;
4198;SDS011;2113;50.946;14.610;2023-09-08T14:31:00;5.13;;;4.20;;
4198;SDS011;2113;50.946;14.610;2023-09-08T14:33:28;5.97;;;4.93;;
4198;SDS011;2113;50.946;14.610;2023-09-08T14:35:57;8.33;;;5.07;;
4198;SDS011;2113;50.946;14.610;2023-09-08T14:38:26;5.53;;;4.37;;
4198;SDS011;2113;50.946;14.610;2023-09-08T14:40:55;5.60;;;4.80;;
4198;SDS011;2113;50.946;14.610;2023-09-08T14:43:25;5.80;;;4.63;;
4198;SDS011;2113;50.946;14.610;2023-09-08T14:45:54;7.00;;;4.87;;
4198;SDS011;2113;50.946;14.610;2023-09-08T14:48:25;6.47;;;4.87;;
4198;SDS011;2113;50.946;14.610;2023-09-08T14:50:54;6.17;;;4.77;;
4198;SDS011;2113;50.946;14.610;2023-09-08T14:53:23;6.27;;;4.30;;
4198;SDS011;2113;50.946;14.610;2023-09-08T14:55:51;5.77;;;4.17;;
4198;SDS011;2113;50.946;14.610;2023-09-08T14:58:24;8.60;;;4.40;;
4198;SDS011;2113;50.946;14.610;2023-09-08T15:00:58;9.43;;;5.27;;
4198;SDS011;2113;50.946;14.610;2023-09-08T15:03:32;7.77;;;4.00;;
4198;SDS011;2113;50.946;14.610;2023-09-08T15:06:02;5.20;;;4.13;;
4198;SDS011;2113;50.946;14.610;2023-09-08T15:08:30;5.73;;;4.10;;
4198;SDS011;2113;50.946;14.610;2023-09-08T15:10:59;6.23;;;4.17;;
4198;SDS011;2113;50.946;14.610;2023-09-08T15:13:27;5.67;;;3.90;;